Main page
METAR-TAF:

METAR-TAF

Airports :

Chippewa Valley Regional Airport

Eau Claire, Wisconsin, United States

latitude: 44-51-55N, longitude: 091-29-06W, elevation: 909 ft

Current weather observation

The report was made 24 minutes ago, at 21:56 UTC
Wind 14 mph from the East/Southeast
Temperature 57°F
Humidity 36%
Pressure 29.97 in. Hg
Visibility: 10 miles
Clear sky

METAR: KEAU 012156Z 12012KT 10SM CLR 14/M01 A2997 RMK AO2 SLP154 T01441006

Time: 17:20 (22:20 UTC)

Forecast

The report was made 4 hours and 50 minutes ago, at 17:30 UTC
Forecast valid from 01 at 18 UTC to 02 at 18 UTC
Wind 6 mph from the East
Visibility: 6 miles
Clear sky
From 02 at 0100 UTC
Wind 9 mph from the East/Southeast
Visibility: 6 miles
Broken clouds at a height of 10000 ft
From 02 at 1700 UTC
Wind 15 mph from the Southeast with gusts up to 24 mph
Visibility: 6 miles
Broken clouds at a height of 7000 ft

TAF: KEAU 011730Z 0118/0218 10005KT P6SM SKC FM020100 12008KT P6SM BKN100 FM021700 14013G21KT P6SM BKN070

Weather observations and forecasts of more than 4000 airports (METAR and TAF reports).

The available stations are represented by yellow and red dots on the map.

Hover mouse over dot to see the name of the station.

Then click to see weather observations and forecasts.

To change the map : click on the green buttons with a black cross to zoom in, on the green button with a dash to zoom out, or on the green arrows for adjacent maps.


METAR-TAF: